Ronks, PA

2:15 AM EDT on May 06, 2015 (GMT -0400)
Paradise | | Change Station
CLOSE
Current Station
Personal Weather Station
Location: Paradise, PA
Elevation: 365 ft
Nearby Weather Stations

Elev 365 ft 40.01 °N, 76.14 °W | Updated 3 minutes ago

Overcast
Overcast
61.7 °F
Feels Like 61.7 °F
N
0.0
Wind Variable Wind from West
Gusts 0.0 mph

Today
High -- | Low -- °F
--% Chance of Precip.
Yesterday
High -- | Low -- °F
Precip. -- in
5:58 AM 8:04 PM
Waning Gibbous, 95% visible
Pressure 30.21 in
Visibility 1.8 miles
Clouds Few 6000 ft
Dew Point 60 °F
Humidity 95%
Rainfall 0.02 in
Snow Depth Not available.
UV 0 out of 12
Pollen 9.90 out of 12
Air Quality Not available.
Flu Activity Sporadic
SPECI KLNS 060607Z AUTO 00000KT 1 3/4SM BR FEW060 17/16 A3021 RMK AO2 T01670161

More Conditions Fewer Conditions

Pressure 30.21 in
Visibility 1.8 miles
Clouds Few 6000 ft
Dew Point 60 °F
Humidity 95%
Rainfall 0.02 in
Snow Depth Not available.
UV 0 out of 12
Pollen 9.90 out of 12
Air Quality Not available.
Flu Activity Sporadic
SPECI KLNS 060607Z AUTO 00000KT 1 3/4SM BR FEW060 17/16 A3021 RMK AO2 T01670161

More Conditions Fewer Conditions

Nowcast | as of 12:15 am EDT on May 6, 2015

A cluster of showers and isolated thunderstorms will move out of the eastern portion of the lower Susquehanna valley by 2 am. At 1210 am...most of the activity was east of a Mount Joy...York line. A brief heavy downpour will be possible. The activity is moving southeast at 20 mph.

×

10-Day Weather Forecast

Almanac

Astronomy

May. 06, 2015 Rise Set
Actual Time
Civil Twilight
Nautical Twilight
Astronomical Twilight
Moon
Length of Visible Light
Length of Day
Tomorrow will be .
, % of the Moon is Illuminated

Today's Extremes

State Highs State Lows

Community

WunderPhotos

Upload Photos

1,818,848 photos uploaded!

WunderBlogs® & News

Nearby

Air Quality

  Air Quality AQ Index Pollutant
Not available.

Snow Depth

Station Depth Elevation

Earthquake Activity

City Distance Mag. Time & Date
Minimum magnitude displayed is 2.5.

Coastal Water Temperatures

Place Temperature

Stations

Nearby Weather Stations

Station Location Temp. Windchill Dew Point Humidity Wind Precip. Elev Updated Type